Missoula International Airport
KMSO : now visible

Airfield :











YOU CAN JOIN US ON...

 
LOGIN :

Register | Disclaimer

   EN    FR    IT 

 









Legend :    VFR   Marginal VFR   IFR   Intensive IFR   Very Intensive IFR
Visi :
Ceiling :
>= 8 km
>= 3000ft
5 to 8 km
1000 to 3000 ft
1500m to 5 km
500 to 1000 ft
800 to 1500m
200 to 500 ft
< 800m
< 200 ft
Symbols :   Thunderstorms  Fog  Heavy snow  Heavy precipitations  Wind > 20 kt







- Airport Elevation : 3206 ft
- IATA code : MSO


KMSO - Missoula International

CURRENT METAR :
  • 221853Z 12017G23KT 10SM FEW060 15/01 A2997 RMK AO2 SLP146 T01500011

EXPIRED METARs :
  • 221753Z 12014KT 10SM FEW055 13/01 A2996 RMK AO2 SLP147 T01330006 10133 20072 51006
  • 221653Z 10012KT 10SM CLR 12/01 A2996 RMK AO2 SLP147 T01170006

TAF KMSO
Valid from the 22 at 19:00 until the 23 at 18:00 UTC


221857Z 2219/2318 11017G23KT P6SM FEW060 BKN140
FM230000 06018G28KT P6SM BKN200
FM230300 10012KT P6SM SCT120
KZLC FIR / North America



MET'MAP, your aeronautical weather chart ! - Copyright ORBIFLY December 2007 - Disclaimer

ORBIFLY MET'MAP TEAM :

Programming & Development : Alexandra Zaïnal
Concept & Development : Baudouin d'Aumeries
Co-Development & Prog : Marc-Olivier Méhu
Technical & hardware support : Manuel Goepfert

Contact : metmap@orbifly.com




SOURCES & CREDITS :

   NOAA       Earth
Advisory